JBU2761 KFLL-TNCM
Flight info
| Callsign | JBU2761 |
|---|---|
| Flight time | 2h 24m |
| Altitude | 35000 |
| Route | SNAPR2 SUMAC Y421 HAGIT Y290 SLUGO |
| Aircraft | A320/M-SDE3FGHIRWY/LB1 |
Departure
| Time | 2026-05-06 20:47 |
|---|---|
| Airport | Fort Lauderdale Hollywood International Airport (KFLL) |
Arrival
| Time | 2026-05-06 23:12 |
|---|---|
| Airport | Princess Juliana International Airport (TNCM) |
| Time | Latitude | Longitude | Altitude | Speed | Heading |
|---|---|---|---|---|---|
| 2026-05-06 19:57 | 26.07174 | -80.14602 | 16 ft | 0 kts | 143° |
| 2026-05-06 20:01 | 26.07175 | -80.14602 | 25 ft | 0 kts | 143° |
| 2026-05-06 20:03 | 26.07175 | -80.14603 | 25 ft | 0 kts | 143° |
| 2026-05-06 20:23 | 26.07176 | -80.14603 | 16 ft | 0 kts | 143° |
| 2026-05-06 20:31 | 26.07178 | -80.14605 | 16 ft | 3 kts | 141° |
| 2026-05-06 20:32 | 26.07192 | -80.14621 | 18 ft | 3 kts | 128° |
| 2026-05-06 20:32 | 26.07201 | -80.14638 | 16 ft | 3 kts | 103° |
| 2026-05-06 20:32 | 26.07202 | -80.14663 | 16 ft | 3 kts | 103° |
| 2026-05-06 20:32 | 26.07208 | -80.14689 | 16 ft | 3 kts | 107° |
| 2026-05-06 20:33 | 26.07214 | -80.14709 | 17 ft | 1 kts | 108° |
| 2026-05-06 20:33 | 26.07215 | -80.14713 | 17 ft | 3 kts | 108° |
| 2026-05-06 20:35 | 26.07212 | -80.14712 | 17 ft | 0 kts | 135° |
| 2026-05-06 20:35 | 26.07209 | -80.14713 | 17 ft | 0 kts | 168° |
| 2026-05-06 20:36 | 26.07208 | -80.14714 | 17 ft | 0 kts | 187° |
| 2026-05-06 20:36 | 26.07207 | -80.14719 | 16 ft | 0 kts | 233° |
| 2026-05-06 20:36 | 26.07205 | -80.14727 | 16 ft | 4 kts | 250° |
| 2026-05-06 20:36 | 26.07190 | -80.14767 | 16 ft | 7 kts | 241° |
| 2026-05-06 20:37 | 26.07154 | -80.14812 | 16 ft | 9 kts | 219° |
| 2026-05-06 20:37 | 26.07090 | -80.14839 | 16 ft | 11 kts | 180° |
| 2026-05-06 20:37 | 26.07021 | -80.14789 | 17 ft | 13 kts | 135° |
| 2026-05-06 20:37 | 26.06950 | -80.14759 | 16 ft | 10 kts | 204° |
| 2026-05-06 20:38 | 26.06913 | -80.14830 | 16 ft | 12 kts | 266° |
| 2026-05-06 20:38 | 26.06911 | -80.14932 | 16 ft | 14 kts | 269° |
| 2026-05-06 20:38 | 26.06912 | -80.15047 | 16 ft | 14 kts | 271° |
| 2026-05-06 20:38 | 26.06878 | -80.15125 | 16 ft | 13 kts | 199° |
| 2026-05-06 20:39 | 26.06783 | -80.15131 | 16 ft | 15 kts | 180° |
| 2026-05-06 20:39 | 26.06699 | -80.15161 | 21 ft | 12 kts | 246° |
| 2026-05-06 20:39 | 26.06694 | -80.15260 | 18 ft | 16 kts | 270° |
| 2026-05-06 20:39 | 26.06697 | -80.15399 | 16 ft | 19 kts | 269° |
| 2026-05-06 20:40 | 26.06697 | -80.15554 | 16 ft | 21 kts | 271° |
| 2026-05-06 20:40 | 26.06699 | -80.15702 | 16 ft | 17 kts | 270° |
| 2026-05-06 20:40 | 26.06696 | -80.15790 | 16 ft | 9 kts | 258° |
| 2026-05-06 20:40 | 26.06684 | -80.15812 | 17 ft | 0 kts | 229° |
| 2026-05-06 20:46 | 26.06673 | -80.15816 | 17 ft | 5 kts | 197° |
| 2026-05-06 20:46 | 26.06618 | -80.15822 | 17 ft | 9 kts | 179° |
| 2026-05-06 20:46 | 26.06589 | -80.15792 | 20 ft | 7 kts | 93° |
| 2026-05-06 20:46 | 26.06588 | -80.15667 | 22 ft | 41 kts | 90° |
| 2026-05-06 20:47 | 26.06585 | -80.15084 | 20 ft | 107 kts | 90° |
| 2026-05-06 20:47 | 26.06571 | -80.14078 | 111 ft | 146 kts | 92° |
| 2026-05-06 20:47 | 26.06545 | -80.12924 | 636 ft | 153 kts | 92° |
| 2026-05-06 20:47 | 26.06497 | -80.11730 | 1271 ft | 158 kts | 93° |
| 2026-05-06 20:48 | 26.06421 | -80.10504 | 1901 ft | 160 kts | 90° |
| 2026-05-06 20:48 | 26.06446 | -80.09195 | 2203 ft | 180 kts | 87° |
| 2026-05-06 20:48 | 26.06512 | -80.07706 | 2468 ft | 204 kts | 87° |
| 2026-05-06 20:48 | 26.06578 | -80.06035 | 2802 ft | 228 kts | 88° |
| 2026-05-06 20:49 | 26.06635 | -80.04182 | 3196 ft | 252 kts | 89° |
| 2026-05-06 20:49 | 26.06682 | -80.02167 | 3787 ft | 267 kts | 89° |
| 2026-05-06 20:49 | 26.06716 | -80.00076 | 4613 ft | 273 kts | 90° |
| 2026-05-06 20:49 | 26.06720 | -79.97947 | 5469 ft | 278 kts | 90° |
| 2026-05-06 20:50 | 26.06704 | -79.95785 | 6349 ft | 280 kts | 90° |
| 2026-05-06 20:50 | 26.06681 | -79.93638 | 7165 ft | 283 kts | 90° |
| 2026-05-06 20:50 | 26.06655 | -79.91449 | 7960 ft | 286 kts | 89° |
| 2026-05-06 20:50 | 26.06627 | -79.89227 | 8745 ft | 289 kts | 89° |
| 2026-05-06 20:51 | 26.06600 | -79.86983 | 9518 ft | 292 kts | 89° |
| 2026-05-06 20:51 | 26.06574 | -79.84678 | 10192 ft | 299 kts | 88° |
| 2026-05-06 20:51 | 26.06441 | -79.82280 | 10356 ft | 323 kts | 97° |
| 2026-05-06 20:51 | 26.06061 | -79.79785 | 10725 ft | 336 kts | 97° |
| 2026-05-06 20:52 | 26.05658 | -79.77203 | 11309 ft | 341 kts | 97° |
| 2026-05-06 20:52 | 26.05249 | -79.74595 | 11946 ft | 343 kts | 97° |
| 2026-05-06 20:52 | 26.04835 | -79.71968 | 12601 ft | 346 kts | 97° |
| 2026-05-06 20:52 | 26.04418 | -79.69324 | 13245 ft | 348 kts | 96° |
| 2026-05-06 20:53 | 26.03998 | -79.66665 | 13876 ft | 351 kts | 96° |
| 2026-05-06 20:53 | 26.03557 | -79.63995 | 14406 ft | 355 kts | 98° |
| 2026-05-06 20:53 | 26.03006 | -79.61301 | 14904 ft | 360 kts | 100° |
| 2026-05-06 20:53 | 26.02371 | -79.58583 | 15395 ft | 365 kts | 101° |
| 2026-05-06 20:54 | 26.01695 | -79.55844 | 15880 ft | 370 kts | 102° |
| 2026-05-06 20:54 | 26.01002 | -79.53070 | 16367 ft | 374 kts | 102° |
| 2026-05-06 20:54 | 26.00310 | -79.50263 | 16853 ft | 379 kts | 102° |
| 2026-05-06 20:54 | 25.99620 | -79.47416 | 17331 ft | 383 kts | 101° |
| 2026-05-06 20:55 | 25.98942 | -79.44575 | 17809 ft | 387 kts | 101° |
| 2026-05-06 20:55 | 25.98245 | -79.41627 | 18295 ft | 392 kts | 101° |
| 2026-05-06 20:55 | 25.97553 | -79.38717 | 18690 ft | 397 kts | 103° |
| 2026-05-06 20:55 | 25.96610 | -79.35820 | 19116 ft | 403 kts | 107° |
| 2026-05-06 20:56 | 25.95603 | -79.32901 | 19563 ft | 406 kts | 107° |
| 2026-05-06 20:56 | 25.94582 | -79.29961 | 20015 ft | 410 kts | 108° |
| 2026-05-06 20:56 | 25.93547 | -79.26998 | 20471 ft | 413 kts | 108° |
| 2026-05-06 20:56 | 25.92504 | -79.24014 | 20929 ft | 416 kts | 108° |
| 2026-05-06 20:57 | 25.91454 | -79.21007 | 21383 ft | 419 kts | 108° |
| 2026-05-06 20:57 | 25.90398 | -79.17975 | 21831 ft | 423 kts | 108° |
| 2026-05-06 20:57 | 25.89331 | -79.14916 | 22283 ft | 426 kts | 108° |
| 2026-05-06 20:57 | 25.88253 | -79.11832 | 22729 ft | 430 kts | 108° |
| 2026-05-06 20:58 | 25.87168 | -79.08726 | 23187 ft | 433 kts | 108° |
| 2026-05-06 20:58 | 25.86082 | -79.05614 | 23627 ft | 436 kts | 108° |
| 2026-05-06 20:58 | 25.85353 | -79.03527 | 23882 ft | 438 kts | 108° |
| 2026-05-06 20:58 | 25.84245 | -79.00363 | 24251 ft | 441 kts | 108° |
| 2026-05-06 20:59 | 25.83129 | -78.97188 | 24627 ft | 443 kts | 108° |
| 2026-05-06 20:59 | 25.82003 | -78.93986 | 25000 ft | 445 kts | 108° |
| 2026-05-06 20:59 | 25.80876 | -78.90777 | 25357 ft | 448 kts | 108° |
| 2026-05-06 20:59 | 25.79741 | -78.87545 | 25709 ft | 451 kts | 108° |
| 2026-05-06 21:00 | 25.78599 | -78.84297 | 26043 ft | 453 kts | 108° |
| 2026-05-06 21:00 | 25.77448 | -78.81026 | 26395 ft | 456 kts | 108° |
| 2026-05-06 21:00 | 25.76288 | -78.77737 | 26736 ft | 459 kts | 108° |
| 2026-05-06 21:00 | 25.75122 | -78.74433 | 27072 ft | 462 kts | 108° |
| 2026-05-06 21:01 | 25.73785 | -78.71199 | 27383 ft | 467 kts | 117° |
| 2026-05-06 21:01 | 25.72022 | -78.68160 | 27711 ft | 471 kts | 122° |
| 2026-05-06 21:01 | 25.70170 | -78.65157 | 28035 ft | 473 kts | 122° |
| 2026-05-06 21:01 | 25.68310 | -78.62129 | 28355 ft | 476 kts | 122° |
| 2026-05-06 21:02 | 25.66446 | -78.59082 | 28690 ft | 478 kts | 122° |
| 2026-05-06 21:02 | 25.64573 | -78.56018 | 29019 ft | 481 kts | 122° |
| 2026-05-06 21:02 | 25.62708 | -78.52977 | 29344 ft | 484 kts | 122° |
| 2026-05-06 21:02 | 25.60810 | -78.49891 | 29677 ft | 486 kts | 122° |
| 2026-05-06 21:03 | 25.58942 | -78.46748 | 30004 ft | 488 kts | 117° |
| 2026-05-06 21:03 | 25.57450 | -78.43381 | 30294 ft | 487 kts | 108° |
| 2026-05-06 21:03 | 25.56417 | -78.39833 | 30558 ft | 487 kts | 102° |
| 2026-05-06 21:03 | 25.55508 | -78.36208 | 30829 ft | 490 kts | 102° |
| 2026-05-06 21:04 | 25.54589 | -78.32570 | 31096 ft | 492 kts | 102° |
| 2026-05-06 21:04 | 25.53657 | -78.28914 | 31363 ft | 495 kts | 103° |
| 2026-05-06 21:04 | 25.52712 | -78.25237 | 31627 ft | 497 kts | 103° |
| 2026-05-06 21:04 | 25.51762 | -78.21559 | 31983 ft | 497 kts | 103° |
| 2026-05-06 21:05 | 25.50809 | -78.17882 | 32367 ft | 496 kts | 103° |
| 2026-05-06 21:05 | 25.49858 | -78.14210 | 32734 ft | 496 kts | 103° |
| 2026-05-06 21:05 | 25.48909 | -78.10539 | 33110 ft | 496 kts | 103° |
| 2026-05-06 21:05 | 25.47959 | -78.06859 | 33486 ft | 496 kts | 103° |
| 2026-05-06 21:06 | 25.47016 | -78.03198 | 33865 ft | 496 kts | 103° |
| 2026-05-06 21:06 | 25.46072 | -77.99527 | 34223 ft | 496 kts | 103° |
| 2026-05-06 21:06 | 25.45129 | -77.95862 | 34534 ft | 496 kts | 103° |
| 2026-05-06 21:06 | 25.44185 | -77.92198 | 34901 ft | 495 kts | 102° |
| 2026-05-06 21:07 | 25.43238 | -77.88543 | 35033 ft | 494 kts | 102° |
| 2026-05-06 21:07 | 25.41363 | -77.81357 | 35067 ft | 486 kts | 103° |
| 2026-05-06 21:08 | 25.39494 | -77.74185 | 35072 ft | 485 kts | 102° |
| 2026-05-06 21:08 | 25.37637 | -77.67038 | 35070 ft | 485 kts | 102° |
| 2026-05-06 21:09 | 25.35765 | -77.59878 | 35068 ft | 485 kts | 103° |
| 2026-05-06 21:09 | 25.33892 | -77.52723 | 35073 ft | 484 kts | 102° |
| 2026-05-06 21:10 | 25.32022 | -77.45568 | 35074 ft | 485 kts | 102° |
| 2026-05-06 21:10 | 25.30148 | -77.38413 | 35083 ft | 485 kts | 103° |
| 2026-05-06 21:11 | 25.27286 | -77.31663 | 35082 ft | 491 kts | 121° |
| 2026-05-06 21:11 | 25.23559 | -77.25329 | 35081 ft | 491 kts | 121° |
| 2026-05-06 21:12 | 25.19856 | -77.18978 | 35085 ft | 491 kts | 120° |
| 2026-05-06 21:12 | 25.16165 | -77.12621 | 35080 ft | 491 kts | 120° |
| 2026-05-06 21:13 | 25.12474 | -77.06282 | 35077 ft | 491 kts | 120° |
| 2026-05-06 21:13 | 25.08762 | -76.99952 | 35077 ft | 491 kts | 120° |
| 2026-05-06 21:14 | 25.05053 | -76.93643 | 35074 ft | 491 kts | 120° |
| 2026-05-06 21:14 | 25.01340 | -76.87320 | 35084 ft | 491 kts | 120° |
| 2026-05-06 21:15 | 24.97628 | -76.81005 | 35097 ft | 490 kts | 120° |
| 2026-05-06 21:15 | 24.93928 | -76.74718 | 35095 ft | 488 kts | 120° |
| 2026-05-06 21:16 | 24.90253 | -76.68484 | 35094 ft | 488 kts | 120° |
| 2026-05-06 21:16 | 24.86571 | -76.62237 | 35085 ft | 487 kts | 120° |
| 2026-05-06 21:17 | 24.82878 | -76.55985 | 35084 ft | 487 kts | 120° |
| 2026-05-06 21:17 | 24.79190 | -76.49738 | 35094 ft | 486 kts | 120° |
| 2026-05-06 21:18 | 24.75502 | -76.43507 | 35097 ft | 485 kts | 120° |
| 2026-05-06 21:18 | 24.71807 | -76.37298 | 35092 ft | 485 kts | 120° |
| 2026-05-06 21:19 | 24.68123 | -76.31096 | 35082 ft | 484 kts | 120° |
| 2026-05-06 21:19 | 24.64450 | -76.24902 | 35089 ft | 483 kts | 120° |
| 2026-05-06 21:20 | 24.60773 | -76.18719 | 35094 ft | 483 kts | 120° |
| 2026-05-06 21:20 | 24.57115 | -76.12591 | 35100 ft | 482 kts | 119° |
| 2026-05-06 21:21 | 24.53550 | -76.06366 | 35094 ft | 481 kts | 117° |
| 2026-05-06 21:21 | 24.50100 | -76.00077 | 35088 ft | 481 kts | 117° |
| 2026-05-06 21:22 | 24.46631 | -75.93785 | 35085 ft | 481 kts | 117° |
| 2026-05-06 21:22 | 24.43122 | -75.87531 | 35087 ft | 481 kts | 118° |
| 2026-05-06 21:23 | 24.39600 | -75.81283 | 35081 ft | 481 kts | 118° |
| 2026-05-06 21:23 | 24.36085 | -75.75032 | 35090 ft | 481 kts | 118° |
| 2026-05-06 21:24 | 24.32565 | -75.68782 | 35089 ft | 481 kts | 118° |
| 2026-05-06 21:24 | 24.29050 | -75.62542 | 35083 ft | 481 kts | 118° |
| 2026-05-06 21:25 | 24.25557 | -75.56361 | 35087 ft | 480 kts | 118° |
| 2026-05-06 21:25 | 24.22052 | -75.50162 | 35088 ft | 479 kts | 118° |
| 2026-05-06 21:26 | 24.18516 | -75.43913 | 35087 ft | 479 kts | 118° |
| 2026-05-06 21:26 | 24.15031 | -75.37751 | 35092 ft | 479 kts | 118° |
| 2026-05-06 21:27 | 24.11518 | -75.31553 | 35089 ft | 479 kts | 118° |
| 2026-05-06 21:27 | 24.07988 | -75.25351 | 35088 ft | 479 kts | 118° |
| 2026-05-06 21:28 | 24.04482 | -75.19184 | 35089 ft | 479 kts | 118° |
| 2026-05-06 21:28 | 24.00961 | -75.12994 | 35085 ft | 479 kts | 118° |
| 2026-05-06 21:29 | 23.97441 | -75.06816 | 35086 ft | 479 kts | 118° |
| 2026-05-06 21:29 | 23.93906 | -75.00632 | 35087 ft | 479 kts | 118° |
| 2026-05-06 21:30 | 23.90397 | -74.94501 | 35087 ft | 479 kts | 118° |
| 2026-05-06 21:30 | 23.86872 | -74.88356 | 35081 ft | 479 kts | 118° |
| 2026-05-06 21:31 | 23.83349 | -74.82188 | 35077 ft | 478 kts | 118° |
| 2026-05-06 21:31 | 23.79815 | -74.76019 | 35076 ft | 478 kts | 118° |
| 2026-05-06 21:32 | 23.76275 | -74.69868 | 35077 ft | 479 kts | 118° |
| 2026-05-06 21:32 | 23.70958 | -74.60629 | 35078 ft | 479 kts | 118° |
| 2026-05-06 21:33 | 23.67411 | -74.54477 | 35079 ft | 479 kts | 118° |
| 2026-05-06 21:33 | 23.63861 | -74.48327 | 35079 ft | 479 kts | 118° |
| 2026-05-06 21:34 | 23.60344 | -74.42220 | 35076 ft | 479 kts | 118° |
| 2026-05-06 21:34 | 23.56782 | -74.36073 | 35072 ft | 478 kts | 118° |
| 2026-05-06 21:35 | 23.53224 | -74.29948 | 35081 ft | 478 kts | 118° |
| 2026-05-06 21:35 | 23.49680 | -74.23822 | 35079 ft | 478 kts | 118° |
| 2026-05-06 21:36 | 23.46138 | -74.17699 | 35075 ft | 478 kts | 118° |
| 2026-05-06 21:36 | 23.42576 | -74.11584 | 35071 ft | 478 kts | 118° |
| 2026-05-06 21:37 | 23.39015 | -74.05474 | 35072 ft | 478 kts | 118° |
| 2026-05-06 21:37 | 23.35461 | -73.99365 | 35081 ft | 478 kts | 118° |
| 2026-05-06 21:38 | 23.31909 | -73.93268 | 35075 ft | 478 kts | 118° |
| 2026-05-06 21:38 | 23.28336 | -73.87160 | 35074 ft | 479 kts | 118° |
| 2026-05-06 21:39 | 23.24756 | -73.81051 | 35075 ft | 479 kts | 118° |
| 2026-05-06 21:39 | 23.21184 | -73.74941 | 35078 ft | 479 kts | 118° |
| 2026-05-06 21:40 | 23.17594 | -73.68824 | 35075 ft | 479 kts | 118° |
| 2026-05-06 21:40 | 23.14026 | -73.62738 | 35090 ft | 479 kts | 118° |
| 2026-05-06 21:41 | 23.10468 | -73.56669 | 35082 ft | 479 kts | 118° |
| 2026-05-06 21:41 | 23.06856 | -73.50522 | 35081 ft | 480 kts | 118° |
| 2026-05-06 21:42 | 23.03259 | -73.44417 | 35079 ft | 480 kts | 118° |
| 2026-05-06 21:42 | 22.99686 | -73.38349 | 35080 ft | 480 kts | 118° |
| 2026-05-06 21:43 | 22.96085 | -73.32252 | 35079 ft | 480 kts | 118° |
| 2026-05-06 21:43 | 22.92479 | -73.26155 | 35080 ft | 480 kts | 118° |
| 2026-05-06 21:44 | 22.88864 | -73.20038 | 35074 ft | 481 kts | 118° |
| 2026-05-06 21:44 | 22.85241 | -73.13922 | 35074 ft | 481 kts | 118° |
| 2026-05-06 21:45 | 22.82229 | -73.08854 | 35069 ft | 481 kts | 118° |
| 2026-05-06 21:45 | 22.78603 | -73.02754 | 35077 ft | 481 kts | 118° |
| 2026-05-06 21:46 | 22.74987 | -72.96668 | 35078 ft | 480 kts | 118° |
| 2026-05-06 21:46 | 22.71369 | -72.90573 | 35082 ft | 481 kts | 118° |
| 2026-05-06 21:47 | 22.67739 | -72.84486 | 35075 ft | 481 kts | 118° |
| 2026-05-06 21:47 | 22.64106 | -72.78389 | 35073 ft | 482 kts | 118° |
| 2026-05-06 21:48 | 22.60477 | -72.72297 | 35072 ft | 482 kts | 118° |
| 2026-05-06 21:48 | 22.56854 | -72.66243 | 35075 ft | 482 kts | 118° |
| 2026-05-06 21:49 | 22.53202 | -72.60161 | 35089 ft | 482 kts | 118° |
| 2026-05-06 21:49 | 22.49553 | -72.54069 | 35078 ft | 482 kts | 117° |
| 2026-05-06 21:50 | 22.45911 | -72.47980 | 35079 ft | 483 kts | 118° |
| 2026-05-06 21:50 | 22.42254 | -72.41897 | 35070 ft | 482 kts | 118° |
| 2026-05-06 21:51 | 22.38596 | -72.35821 | 35075 ft | 482 kts | 118° |
| 2026-05-06 21:51 | 22.34945 | -72.29776 | 35079 ft | 481 kts | 118° |
| 2026-05-06 21:52 | 22.31298 | -72.23719 | 35092 ft | 481 kts | 117° |
| 2026-05-06 21:52 | 22.27640 | -72.17651 | 35084 ft | 482 kts | 117° |
| 2026-05-06 21:53 | 22.23986 | -72.11589 | 35082 ft | 482 kts | 117° |
| 2026-05-06 21:53 | 22.20326 | -72.05536 | 35076 ft | 482 kts | 117° |
| 2026-05-06 21:54 | 22.16692 | -71.99542 | 35074 ft | 482 kts | 117° |
| 2026-05-06 21:54 | 22.12999 | -71.93447 | 35078 ft | 482 kts | 117° |
| 2026-05-06 21:55 | 22.09335 | -71.87395 | 35084 ft | 482 kts | 117° |
| 2026-05-06 21:55 | 22.05681 | -71.81382 | 35076 ft | 482 kts | 117° |
| 2026-05-06 21:56 | 22.02005 | -71.75342 | 35078 ft | 482 kts | 117° |
| 2026-05-06 21:56 | 21.98339 | -71.69331 | 35082 ft | 481 kts | 117° |
| 2026-05-06 21:57 | 21.94666 | -71.63303 | 35078 ft | 481 kts | 117° |
| 2026-05-06 21:57 | 21.90998 | -71.57271 | 35073 ft | 481 kts | 117° |
| 2026-05-06 21:58 | 21.87325 | -71.51252 | 35088 ft | 481 kts | 117° |
| 2026-05-06 21:58 | 21.83641 | -71.45251 | 35083 ft | 480 kts | 117° |
| 2026-05-06 21:59 | 21.79963 | -71.39249 | 35082 ft | 480 kts | 117° |
| 2026-05-06 21:59 | 21.76296 | -71.33255 | 35083 ft | 479 kts | 117° |
| 2026-05-06 22:00 | 21.72649 | -71.27303 | 35078 ft | 479 kts | 117° |
| 2026-05-06 22:00 | 21.68977 | -71.21319 | 35072 ft | 479 kts | 117° |
| 2026-05-06 22:01 | 21.65309 | -71.15360 | 35078 ft | 479 kts | 117° |
| 2026-05-06 22:01 | 21.61632 | -71.09392 | 35074 ft | 479 kts | 117° |
| 2026-05-06 22:02 | 21.57953 | -71.03423 | 35076 ft | 478 kts | 117° |
| 2026-05-06 22:02 | 21.54239 | -70.97488 | 35072 ft | 479 kts | 118° |
| 2026-05-06 22:03 | 21.50461 | -70.91586 | 35074 ft | 479 kts | 118° |
| 2026-05-06 22:03 | 21.46697 | -70.85707 | 35093 ft | 479 kts | 118° |
| 2026-05-06 22:04 | 21.42933 | -70.79804 | 35078 ft | 478 kts | 118° |
| 2026-05-06 22:04 | 21.39181 | -70.73916 | 35080 ft | 477 kts | 118° |
| 2026-05-06 22:05 | 21.35433 | -70.68039 | 35078 ft | 477 kts | 118° |
| 2026-05-06 22:05 | 21.31686 | -70.62169 | 35073 ft | 477 kts | 118° |
| 2026-05-06 22:06 | 21.27971 | -70.56354 | 35063 ft | 476 kts | 118° |
| 2026-05-06 22:06 | 21.24224 | -70.50505 | 35086 ft | 476 kts | 119° |
| 2026-05-06 22:07 | 21.20481 | -70.44662 | 35081 ft | 475 kts | 119° |
| 2026-05-06 22:07 | 21.16730 | -70.38826 | 35077 ft | 475 kts | 119° |
| 2026-05-06 22:08 | 21.12982 | -70.33005 | 35067 ft | 474 kts | 119° |
| 2026-05-06 22:08 | 21.09238 | -70.27184 | 35069 ft | 474 kts | 119° |
| 2026-05-06 22:09 | 21.05503 | -70.21367 | 35068 ft | 474 kts | 119° |
| 2026-05-06 22:09 | 21.01762 | -70.15557 | 35081 ft | 474 kts | 119° |
| 2026-05-06 22:10 | 20.98050 | -70.09789 | 35072 ft | 473 kts | 120° |
| 2026-05-06 22:10 | 20.94309 | -70.04001 | 35073 ft | 473 kts | 120° |
| 2026-05-06 22:11 | 20.90572 | -69.98230 | 35067 ft | 473 kts | 120° |
| 2026-05-06 22:11 | 20.86831 | -69.92451 | 35077 ft | 473 kts | 120° |
| 2026-05-06 22:12 | 20.83097 | -69.86672 | 35075 ft | 472 kts | 120° |
| 2026-05-06 22:12 | 20.79357 | -69.80913 | 35084 ft | 471 kts | 120° |
| 2026-05-06 22:13 | 20.75623 | -69.75158 | 35081 ft | 471 kts | 120° |
| 2026-05-06 22:13 | 20.71893 | -69.69414 | 35080 ft | 470 kts | 120° |
| 2026-05-06 22:14 | 20.68164 | -69.63676 | 35075 ft | 470 kts | 120° |
| 2026-05-06 22:14 | 20.64435 | -69.57941 | 35072 ft | 470 kts | 120° |
| 2026-05-06 22:15 | 20.60710 | -69.52219 | 35085 ft | 469 kts | 120° |
| 2026-05-06 22:15 | 20.57005 | -69.46545 | 35082 ft | 469 kts | 121° |
| 2026-05-06 22:16 | 20.53289 | -69.40862 | 35081 ft | 468 kts | 121° |
| 2026-05-06 22:16 | 20.49570 | -69.35168 | 35076 ft | 467 kts | 121° |
| 2026-05-06 22:17 | 20.45855 | -69.29484 | 35077 ft | 467 kts | 121° |
| 2026-05-06 22:17 | 20.42145 | -69.23814 | 35076 ft | 466 kts | 121° |
| 2026-05-06 22:18 | 20.38436 | -69.18139 | 35090 ft | 466 kts | 121° |
| 2026-05-06 22:18 | 20.34720 | -69.12482 | 35087 ft | 466 kts | 121° |
| 2026-05-06 22:19 | 20.30996 | -69.06826 | 35084 ft | 466 kts | 121° |
| 2026-05-06 22:19 | 20.27304 | -69.01205 | 35082 ft | 466 kts | 121° |
| 2026-05-06 22:20 | 20.23584 | -68.95550 | 35084 ft | 466 kts | 121° |
| 2026-05-06 22:20 | 20.19858 | -68.89903 | 35081 ft | 466 kts | 121° |
| 2026-05-06 22:21 | 20.16138 | -68.84252 | 35091 ft | 466 kts | 122° |
| 2026-05-06 22:21 | 20.12407 | -68.78595 | 35085 ft | 467 kts | 122° |
| 2026-05-06 22:22 | 20.08677 | -68.72944 | 35080 ft | 467 kts | 122° |
| 2026-05-06 22:22 | 20.05027 | -68.67260 | 35077 ft | 466 kts | 120° |
| 2026-05-06 22:23 | 20.01490 | -68.61483 | 35078 ft | 466 kts | 120° |
| 2026-05-06 22:23 | 19.97971 | -68.55698 | 35086 ft | 466 kts | 120° |
| 2026-05-06 22:24 | 19.94411 | -68.49935 | 35089 ft | 467 kts | 121° |
| 2026-05-06 22:24 | 19.90849 | -68.44216 | 35088 ft | 467 kts | 121° |
| 2026-05-06 22:25 | 19.87751 | -68.38238 | 35081 ft | 460 kts | 105° |
| 2026-05-06 22:25 | 19.85786 | -68.31766 | 35083 ft | 460 kts | 104° |
| 2026-05-06 22:26 | 19.83850 | -68.25277 | 35079 ft | 461 kts | 104° |
| 2026-05-06 22:26 | 19.81895 | -68.18756 | 35071 ft | 470 kts | 104° |
| 2026-05-06 22:27 | 19.79876 | -68.12051 | 35073 ft | 480 kts | 105° |
| 2026-05-06 22:27 | 19.77843 | -68.05300 | 35073 ft | 482 kts | 105° |
| 2026-05-06 22:28 | 19.75796 | -67.98530 | 35073 ft | 482 kts | 105° |
| 2026-05-06 22:28 | 19.73737 | -67.91759 | 35073 ft | 482 kts | 105° |
| 2026-05-06 22:29 | 19.71679 | -67.84986 | 35078 ft | 482 kts | 105° |
| 2026-05-06 22:29 | 19.69626 | -67.78208 | 35081 ft | 482 kts | 105° |
| 2026-05-06 22:30 | 19.67567 | -67.71432 | 35070 ft | 483 kts | 105° |
| 2026-05-06 22:30 | 19.65497 | -67.64652 | 35073 ft | 483 kts | 105° |
| 2026-05-06 22:31 | 19.63427 | -67.57872 | 35078 ft | 483 kts | 105° |
| 2026-05-06 22:31 | 19.61351 | -67.51087 | 35085 ft | 484 kts | 106° |
| 2026-05-06 22:32 | 19.59272 | -67.44296 | 35083 ft | 484 kts | 106° |
| 2026-05-06 22:32 | 19.57195 | -67.37506 | 35084 ft | 484 kts | 106° |
| 2026-05-06 22:33 | 19.55111 | -67.30708 | 35084 ft | 485 kts | 106° |
| 2026-05-06 22:33 | 19.53022 | -67.23909 | 35089 ft | 485 kts | 106° |
| 2026-05-06 22:34 | 19.50946 | -67.17152 | 35090 ft | 485 kts | 107° |
| 2026-05-06 22:34 | 19.48849 | -67.10352 | 35088 ft | 485 kts | 107° |
| 2026-05-06 22:35 | 19.47099 | -67.04695 | 35088 ft | 486 kts | 107° |
| 2026-05-06 22:35 | 19.44996 | -66.97892 | 35089 ft | 486 kts | 107° |
| 2026-05-06 22:36 | 19.42892 | -66.91090 | 35085 ft | 486 kts | 107° |
| 2026-05-06 22:36 | 19.40783 | -66.84291 | 35083 ft | 486 kts | 107° |
| 2026-05-06 22:37 | 19.38674 | -66.77503 | 35083 ft | 486 kts | 107° |
| 2026-05-06 22:37 | 19.36560 | -66.70687 | 35082 ft | 487 kts | 107° |
| 2026-05-06 22:38 | 19.34441 | -66.63880 | 35087 ft | 487 kts | 107° |
| 2026-05-06 22:38 | 19.32323 | -66.57074 | 35091 ft | 487 kts | 107° |
| 2026-05-06 22:39 | 19.30195 | -66.50263 | 35085 ft | 487 kts | 108° |
| 2026-05-06 22:39 | 19.28057 | -66.43442 | 35083 ft | 487 kts | 108° |
| 2026-05-06 22:40 | 19.25926 | -66.36630 | 35082 ft | 488 kts | 108° |
| 2026-05-06 22:40 | 19.23793 | -66.29813 | 35077 ft | 488 kts | 108° |
| 2026-05-06 22:41 | 19.20598 | -66.19642 | 35086 ft | 488 kts | 108° |
| 2026-05-06 22:42 | 19.18455 | -66.12831 | 35085 ft | 488 kts | 108° |
| 2026-05-06 22:42 | 19.16307 | -66.06019 | 35089 ft | 488 kts | 108° |
| 2026-05-06 22:43 | 19.14158 | -65.99212 | 35079 ft | 488 kts | 108° |
| 2026-05-06 22:43 | 19.12009 | -65.92401 | 35082 ft | 488 kts | 109° |
| 2026-05-06 22:44 | 19.09858 | -65.85597 | 35076 ft | 488 kts | 109° |
| 2026-05-06 22:44 | 19.07702 | -65.78811 | 35079 ft | 488 kts | 109° |
| 2026-05-06 22:45 | 19.05542 | -65.72009 | 35083 ft | 488 kts | 109° |
| 2026-05-06 22:45 | 19.03378 | -65.65197 | 35085 ft | 488 kts | 109° |
| 2026-05-06 22:46 | 19.01214 | -65.58396 | 35084 ft | 488 kts | 109° |
| 2026-05-06 22:46 | 18.99045 | -65.51592 | 35083 ft | 488 kts | 109° |
| 2026-05-06 22:47 | 18.96877 | -65.44820 | 35084 ft | 488 kts | 109° |
| 2026-05-06 22:47 | 18.94716 | -65.38062 | 35084 ft | 488 kts | 109° |
| 2026-05-06 22:48 | 18.92549 | -65.31263 | 35083 ft | 488 kts | 109° |
| 2026-05-06 22:48 | 18.90375 | -65.24465 | 35083 ft | 489 kts | 110° |
| 2026-05-06 22:49 | 18.88191 | -65.17661 | 35085 ft | 489 kts | 110° |
| 2026-05-06 22:49 | 18.86000 | -65.10881 | 35085 ft | 489 kts | 110° |
| 2026-05-06 22:50 | 18.83806 | -65.04077 | 35087 ft | 489 kts | 110° |
| 2026-05-06 22:50 | 18.81616 | -64.97276 | 35089 ft | 489 kts | 110° |
| 2026-05-06 22:51 | 18.79422 | -64.90472 | 35078 ft | 490 kts | 111° |
| 2026-05-06 22:51 | 18.77239 | -64.83702 | 35074 ft | 491 kts | 111° |
| 2026-05-06 22:51 | 18.76138 | -64.80291 | 34723 ft | 490 kts | 110° |
| 2026-05-06 22:52 | 18.75029 | -64.76865 | 33998 ft | 491 kts | 110° |
| 2026-05-06 22:52 | 18.73924 | -64.73454 | 33151 ft | 492 kts | 110° |
| 2026-05-06 22:52 | 18.72817 | -64.70038 | 32307 ft | 492 kts | 110° |
| 2026-05-06 22:52 | 18.71707 | -64.66620 | 31470 ft | 493 kts | 109° |
| 2026-05-06 22:53 | 18.70609 | -64.63244 | 30627 ft | 493 kts | 109° |
| 2026-05-06 22:53 | 18.69493 | -64.59813 | 29691 ft | 494 kts | 109° |
| 2026-05-06 22:53 | 18.68377 | -64.56379 | 28637 ft | 494 kts | 109° |
| 2026-05-06 22:53 | 18.67261 | -64.52951 | 27557 ft | 494 kts | 109° |
| 2026-05-06 22:54 | 18.66144 | -64.49518 | 26448 ft | 495 kts | 108° |
| 2026-05-06 22:54 | 18.65029 | -64.46090 | 25515 ft | 492 kts | 108° |
| 2026-05-06 22:54 | 18.63927 | -64.42703 | 24788 ft | 484 kts | 108° |
| 2026-05-06 22:54 | 18.62839 | -64.39361 | 24041 ft | 478 kts | 108° |
| 2026-05-06 22:55 | 18.61762 | -64.36068 | 23243 ft | 473 kts | 108° |
| 2026-05-06 22:55 | 18.60697 | -64.32814 | 22420 ft | 466 kts | 108° |
| 2026-05-06 22:55 | 18.59643 | -64.29600 | 21619 ft | 461 kts | 108° |
| 2026-05-06 22:55 | 18.58604 | -64.26427 | 20834 ft | 456 kts | 108° |
| 2026-05-06 22:56 | 18.57575 | -64.23288 | 20084 ft | 450 kts | 108° |
| 2026-05-06 22:56 | 18.56558 | -64.20184 | 19328 ft | 446 kts | 108° |
| 2026-05-06 22:56 | 18.55563 | -64.17143 | 18616 ft | 443 kts | 108° |
| 2026-05-06 22:56 | 18.54551 | -64.14049 | 17853 ft | 439 kts | 108° |
| 2026-05-06 22:57 | 18.53575 | -64.11059 | 17153 ft | 434 kts | 108° |
| 2026-05-06 22:57 | 18.52595 | -64.08069 | 16500 ft | 429 kts | 108° |
| 2026-05-06 22:57 | 18.51623 | -64.05110 | 15886 ft | 425 kts | 108° |
| 2026-05-06 22:57 | 18.50657 | -64.02185 | 15278 ft | 421 kts | 108° |
| 2026-05-06 22:58 | 18.49701 | -63.99288 | 14676 ft | 417 kts | 108° |
| 2026-05-06 22:58 | 18.48754 | -63.96418 | 14066 ft | 413 kts | 108° |
| 2026-05-06 22:58 | 18.47822 | -63.93578 | 13445 ft | 407 kts | 108° |
| 2026-05-06 22:58 | 18.46900 | -63.90774 | 12803 ft | 402 kts | 108° |
| 2026-05-06 22:59 | 18.45993 | -63.88008 | 12114 ft | 397 kts | 108° |
| 2026-05-06 22:59 | 18.45094 | -63.85275 | 11450 ft | 394 kts | 108° |
| 2026-05-06 22:59 | 18.44198 | -63.82563 | 11177 ft | 392 kts | 108° |
| 2026-05-06 22:59 | 18.43303 | -63.79850 | 11061 ft | 392 kts | 108° |
| 2026-05-06 23:00 | 18.42405 | -63.77136 | 11092 ft | 393 kts | 109° |
| 2026-05-06 23:00 | 18.41505 | -63.74419 | 11089 ft | 393 kts | 108° |
| 2026-05-06 23:00 | 18.40624 | -63.71763 | 11094 ft | 380 kts | 109° |
| 2026-05-06 23:00 | 18.39777 | -63.69221 | 11095 ft | 366 kts | 110° |
| 2026-05-06 23:01 | 18.38650 | -63.66830 | 11094 ft | 364 kts | 122° |
| 2026-05-06 23:01 | 18.37078 | -63.64803 | 11058 ft | 348 kts | 135° |
| 2026-05-06 23:01 | 18.35352 | -63.63087 | 10717 ft | 340 kts | 136° |
| 2026-05-06 23:01 | 18.33595 | -63.61347 | 9839 ft | 351 kts | 136° |
| 2026-05-06 23:02 | 18.31810 | -63.59580 | 9199 ft | 351 kts | 136° |
| 2026-05-06 23:02 | 18.30045 | -63.57831 | 8675 ft | 347 kts | 136° |
| 2026-05-06 23:02 | 18.28318 | -63.56123 | 8171 ft | 342 kts | 136° |
| 2026-05-06 23:02 | 18.26595 | -63.54417 | 7674 ft | 338 kts | 136° |
| 2026-05-06 23:03 | 18.24889 | -63.52729 | 7169 ft | 335 kts | 136° |
| 2026-05-06 23:03 | 18.23217 | -63.51072 | 6724 ft | 330 kts | 136° |
| 2026-05-06 23:03 | 18.21559 | -63.49428 | 6233 ft | 326 kts | 136° |
| 2026-05-06 23:03 | 18.19915 | -63.47797 | 5664 ft | 325 kts | 136° |
| 2026-05-06 23:04 | 18.18276 | -63.46177 | 5206 ft | 321 kts | 136° |
| 2026-05-06 23:04 | 18.16690 | -63.44608 | 5082 ft | 305 kts | 137° |
| 2026-05-06 23:04 | 18.15215 | -63.43144 | 4958 ft | 279 kts | 137° |
| 2026-05-06 23:04 | 18.13837 | -63.41776 | 4802 ft | 267 kts | 136° |
| 2026-05-06 23:05 | 18.12503 | -63.40453 | 4573 ft | 261 kts | 136° |
| 2026-05-06 23:05 | 18.11194 | -63.39157 | 4298 ft | 256 kts | 136° |
| 2026-05-06 23:05 | 18.09918 | -63.37895 | 4175 ft | 247 kts | 136° |
| 2026-05-06 23:05 | 18.08691 | -63.36679 | 4051 ft | 237 kts | 136° |
| 2026-05-06 23:06 | 18.07535 | -63.35535 | 3924 ft | 218 kts | 135° |
| 2026-05-06 23:06 | 18.06465 | -63.34481 | 3639 ft | 208 kts | 135° |
| 2026-05-06 23:06 | 18.05408 | -63.33437 | 3283 ft | 210 kts | 135° |
| 2026-05-06 23:06 | 18.04349 | -63.32389 | 2906 ft | 206 kts | 134° |
| 2026-05-06 23:07 | 18.03319 | -63.31369 | 2650 ft | 199 kts | 134° |
| 2026-05-06 23:07 | 18.02382 | -63.30357 | 2603 ft | 189 kts | 123° |
| 2026-05-06 23:07 | 18.01824 | -63.29187 | 2636 ft | 170 kts | 105° |
| 2026-05-06 23:07 | 18.01663 | -63.28018 | 2611 ft | 157 kts | 89° |
| 2026-05-06 23:08 | 18.01792 | -63.26910 | 2614 ft | 157 kts | 82° |
| 2026-05-06 23:08 | 18.01965 | -63.25722 | 2459 ft | 167 kts | 82° |
| 2026-05-06 23:08 | 18.02135 | -63.24530 | 2285 ft | 165 kts | 83° |
| 2026-05-06 23:08 | 18.02306 | -63.23332 | 2098 ft | 166 kts | 82° |
| 2026-05-06 23:09 | 18.02478 | -63.22132 | 1924 ft | 166 kts | 82° |
| 2026-05-06 23:09 | 18.02651 | -63.20937 | 1734 ft | 166 kts | 83° |
| 2026-05-06 23:09 | 18.02818 | -63.19787 | 1530 ft | 152 kts | 83° |
| 2026-05-06 23:09 | 18.02969 | -63.18736 | 1330 ft | 139 kts | 83° |
| 2026-05-06 23:10 | 18.03109 | -63.17764 | 1170 ft | 133 kts | 82° |
| 2026-05-06 23:10 | 18.03243 | -63.16822 | 990 ft | 130 kts | 83° |
| 2026-05-06 23:10 | 18.03374 | -63.15882 | 830 ft | 131 kts | 82° |
| 2026-05-06 23:10 | 18.03505 | -63.14937 | 686 ft | 132 kts | 85° |
| 2026-05-06 23:11 | 18.03658 | -63.13992 | 544 ft | 133 kts | 83° |
| 2026-05-06 23:11 | 18.03780 | -63.13040 | 318 ft | 132 kts | 81° |
| 2026-05-06 23:11 | 18.03923 | -63.12094 | 105 ft | 130 kts | 82° |
| 2026-05-06 23:11 | 18.04047 | -63.11208 | 29 ft | 108 kts | 82° |
| 2026-05-06 23:12 | 18.04123 | -63.10666 | 27 ft | 51 kts | 82° |
| 2026-05-06 23:12 | 18.04155 | -63.10406 | 28 ft | 13 kts | 89° |
| 2026-05-06 23:12 | 18.04169 | -63.10383 | 28 ft | 3 kts | 305° |
| 2026-05-06 23:12 | 18.04159 | -63.10471 | 28 ft | 25 kts | 262° |
| 2026-05-06 23:13 | 18.04116 | -63.10744 | 27 ft | 45 kts | 260° |
| 2026-05-06 23:13 | 18.04102 | -63.10979 | 28 ft | 20 kts | 306° |
| 2026-05-06 23:13 | 18.04171 | -63.11012 | 28 ft | 9 kts | 315° |
| 2026-05-06 23:13 | 18.04176 | -63.11035 | 29 ft | 3 kts | 265° |
| 2026-05-06 23:14 | 18.04168 | -63.11077 | 29 ft | 9 kts | 257° |
| 2026-05-06 23:14 | 18.04152 | -63.11152 | 28 ft | 14 kts | 259° |
| 2026-05-06 23:14 | 18.04138 | -63.11265 | 28 ft | 17 kts | 270° |
| 2026-05-06 23:14 | 18.04214 | -63.11313 | 29 ft | 10 kts | 356° |
| 2026-05-06 23:15 | 18.04265 | -63.11286 | 29 ft | 8 kts | 52° |
| 2026-05-06 23:15 | 18.04296 | -63.11229 | 29 ft | 8 kts | 58° |
| 2026-05-06 23:15 | 18.04325 | -63.11220 | 29 ft | 2 kts | 349° |
| 2026-05-06 23:15 | 18.04333 | -63.11223 | 29 ft | 3 kts | 342° |
| 2026-05-06 23:16 | 18.04350 | -63.11227 | 29 ft | 0 kts | 350° |